sensor_id;sensor_type;location;lat;lon;timestamp;pressure;altitude;pressure_sealevel;temperature;humidity
77062;BME280;65989;51.686;5.138;2024-02-26T00:00:25;99939.59;;;5.73;93.33
77062;BME280;65989;51.686;5.138;2024-02-26T00:02:50;99936.97;;;5.73;92.98
77062;BME280;65989;51.686;5.138;2024-02-26T00:05:16;99939.94;;;5.77;92.76
77062;BME280;65989;51.686;5.138;2024-02-26T00:07:41;99939.69;;;5.78;92.64
77062;BME280;65989;51.686;5.138;2024-02-26T00:10:08;99930.50;;;5.81;92.17
77062;BME280;65989;51.686;5.138;2024-02-26T00:12:33;99925.25;;;5.81;92.36
77062;BME280;65989;51.686;5.138;2024-02-26T00:14:59;99930.50;;;5.81;92.38
77062;BME280;65989;51.686;5.138;2024-02-26T00:17:24;99928.13;;;5.79;92.50
77062;BME280;65989;51.686;5.138;2024-02-26T00:19:50;99933.13;;;5.81;92.67
77062;BME280;65989;51.686;5.138;2024-02-26T00:22:15;99930.50;;;5.81;92.40
77062;BME280;65989;51.686;5.138;2024-02-26T00:24:41;99930.50;;;5.81;92.69
77062;BME280;65989;51.686;5.138;2024-02-26T00:27:06;99933.69;;;5.83;92.69
77062;BME280;65989;51.686;5.138;2024-02-26T00:29:32;99936.56;;;5.81;92.65
77062;BME280;65989;51.686;5.138;2024-02-26T00:31:57;99928.38;;;5.78;93.40
77062;BME280;65989;51.686;5.138;2024-02-26T00:34:23;99938.97;;;5.66;94.57
77062;BME280;65989;51.686;5.138;2024-02-26T00:36:49;99941.41;;;5.50;95.95
77062;BME280;65989;51.686;5.138;2024-02-26T00:39:14;99945.41;;;5.36;97.40
77062;BME280;65989;51.686;5.138;2024-02-26T00:41:40;99941.34;;;5.28;97.35
77062;BME280;65989;51.686;5.138;2024-02-26T00:44:06;99938.56;;;5.18;97.88
77062;BME280;65989;51.686;5.138;2024-02-26T00:46:31;99932.44;;;5.12;98.75
77062;BME280;65989;51.686;5.138;2024-02-26T00:48:57;99936.81;;;5.06;99.14
77062;BME280;65989;51.686;5.138;2024-02-26T00:51:22;99933.63;;;5.04;99.65
77062;BME280;65989;51.686;5.138;2024-02-26T00:53:47;99935.78;;;5.07;99.80
77062;BME280;65989;51.686;5.138;2024-02-26T00:56:13;99928.69;;;5.08;99.64
77062;BME280;65989;51.686;5.138;2024-02-26T00:58:38;99945.47;;;5.07;99.67
77062;BME280;65989;51.686;5.138;2024-02-26T01:01:04;99940.31;;;5.12;99.78
77062;BME280;65989;51.686;5.138;2024-02-26T01:03:29;99946.91;;;5.15;99.63
77062;BME280;65989;51.686;5.138;2024-02-26T01:05:57;99952.97;;;5.15;99.74
77062;BME280;65989;51.686;5.138;2024-02-26T01:08:23;99958.22;;;5.15;100.00
77062;BME280;65989;51.686;5.138;2024-02-26T01:10:48;99959.00;;;5.16;100.00
77062;BME280;65989;51.686;5.138;2024-02-26T01:13:13;99960.03;;;5.15;100.00
77062;BME280;65989;51.686;5.138;2024-02-26T01:15:39;99967.88;;;5.10;100.00
77062;BME280;65989;51.686;5.138;2024-02-26T01:18:04;99967.53;;;5.06;100.00
77062;BME280;65989;51.686;5.138;2024-02-26T01:20:30;99964.03;;;5.00;100.00
77062;BME280;65989;51.686;5.138;2024-02-26T01:22:55;99964.75;;;4.96;100.00
77062;BME280;65989;51.686;5.138;2024-02-26T01:25:20;99959.50;;;4.96;100.00
77062;BME280;65989;51.686;5.138;2024-02-26T01:27:46;99962.50;;;4.87;100.00
77062;BME280;65989;51.686;5.138;2024-02-26T01:30:12;99954.75;;;4.81;100.00
77062;BME280;65989;51.686;5.138;2024-02-26T01:32:37;99954.75;;;4.81;100.00
77062;BME280;65989;51.686;5.138;2024-02-26T01:35:03;99945.22;;;4.74;100.00
77062;BME280;65989;51.686;5.138;2024-02-26T01:37:29;99950.47;;;4.74;100.00
77062;BME280;65989;51.686;5.138;2024-02-26T01:39:55;99968.97;;;4.68;100.00
77062;BME280;65989;51.686;5.138;2024-02-26T01:42:20;99963.31;;;4.59;100.00
77062;BME280;65989;51.686;5.138;2024-02-26T01:44:46;99961.50;;;4.59;100.00
77062;BME280;65989;51.686;5.138;2024-02-26T01:47:12;99958.88;;;4.59;100.00
77062;BME280;65989;51.686;5.138;2024-02-26T01:49:38;99951.38;;;4.51;100.00
77062;BME280;65989;51.686;5.138;2024-02-26T01:52:06;99950.34;;;4.52;100.00
77062;BME280;65989;51.686;5.138;2024-02-26T01:54:34;99963.31;;;4.59;100.00
77062;BME280;65989;51.686;5.138;2024-02-26T01:57:02;99966.75;;;4.59;100.00
77062;BME280;65989;51.686;5.138;2024-02-26T01:59:28;99980.91;;;4.58;100.00
77062;BME280;65989;51.686;5.138;2024-02-26T02:01:55;99974.06;;;4.57;100.00
77062;BME280;65989;51.686;5.138;2024-02-26T02:04:23;99962.19;;;4.55;100.00
77062;BME280;65989;51.686;5.138;2024-02-26T02:06:48;99970.31;;;4.53;100.00
77062;BME280;65989;51.686;5.138;2024-02-26T02:09:14;99979.66;;;4.49;100.00
77062;BME280;65989;51.686;5.138;2024-02-26T02:11:39;99976.22;;;4.48;100.00
77062;BME280;65989;51.686;5.138;2024-02-26T02:14:05;99982.50;;;4.47;100.00
77062;BME280;65989;51.686;5.138;2024-02-26T02:16:31;99982.28;;;4.49;100.00
77062;BME280;65989;51.686;5.138;2024-02-26T02:18:58;99983.31;;;4.48;100.00
77062;BME280;65989;51.686;5.138;2024-02-26T02:21:23;99975.69;;;4.46;100.00
77062;BME280;65989;51.686;5.138;2024-02-26T02:23:48;99980.13;;;4.46;100.00
77062;BME280;65989;51.686;5.138;2024-02-26T02:26:14;99975.59;;;4.41;100.00
77062;BME280;65989;51.686;5.138;2024-02-26T02:28:40;99973.75;;;4.42;100.00
77062;BME280;65989;51.686;5.138;2024-02-26T02:31:06;99990.63;;;4.46;100.00
77062;BME280;65989;51.686;5.138;2024-02-26T02:33:32;99983.34;;;4.36;100.00
77062;BME280;65989;51.686;5.138;2024-02-26T02:35:58;99991.22;;;4.36;100.00
77062;BME280;65989;51.686;5.138;2024-02-26T02:38:24;99991.44;;;4.34;100.00
77062;BME280;65989;51.686;5.138;2024-02-26T02:40:51;99992.97;;;4.30;100.00
77062;BME280;65989;51.686;5.138;2024-02-26T02:43:17;99997.63;;;4.28;100.00
77062;BME280;65989;51.686;5.138;2024-02-26T02:45:42;99999.69;;;4.26;100.00
77062;BME280;65989;51.686;5.138;2024-02-26T02:48:07;100006.53;;;4.27;100.00
77062;BME280;65989;51.686;5.138;2024-02-26T02:50:33;100003.09;;;4.27;100.00
77062;BME280;65989;51.686;5.138;2024-02-26T02:52:58;100001.75;;;4.24;100.00
77062;BME280;65989;51.686;5.138;2024-02-26T02:55:24;100010.84;;;4.22;100.00
77062;BME280;65989;51.686;5.138;2024-02-26T02:57:50;100008.81;;;4.24;100.00
77062;BME280;65989;51.686;5.138;2024-02-26T03:00:15;100008.94;;;4.17;100.00
77062;BME280;65989;51.686;5.138;2024-02-26T03:02:41;100009.25;;;4.21;100.00
77062;BME280;65989;51.686;5.138;2024-02-26T03:05:08;99998.44;;;4.17;100.00
77062;BME280;65989;51.686;5.138;2024-02-26T03:07:33;100011.66;;;4.22;100.00
77062;BME280;65989;51.686;5.138;2024-02-26T03:09:59;100002.41;;;4.19;100.00
77062;BME280;65989;51.686;5.138;2024-02-26T03:12:24;99998.44;;;4.17;100.00
77062;BME280;65989;51.686;5.138;2024-02-26T03:14:50;100002.66;;;4.18;100.00
77062;BME280;65989;51.686;5.138;2024-02-26T03:17:15;99997.19;;;4.19;100.00
77062;BME280;65989;51.686;5.138;2024-02-26T03:19:40;100002.88;;;4.16;100.00
77062;BME280;65989;51.686;5.138;2024-02-26T03:22:07;100000.50;;;4.15;100.00
77062;BME280;65989;51.686;5.138;2024-02-26T03:24:32;100011.00;;;4.15;100.00
77062;BME280;65989;51.686;5.138;2024-02-26T03:26:58;100013.03;;;4.13;100.00
77062;BME280;65989;51.686;5.138;2024-02-26T03:29:23;100010.66;;;4.11;100.00
77062;BME280;65989;51.686;5.138;2024-02-26T03:31:48;100015.56;;;4.08;100.00
77062;BME280;65989;51.686;5.138;2024-02-26T03:34:14;100016.00;;;4.04;100.00
77062;BME280;65989;51.686;5.138;2024-02-26T03:36:40;100013.63;;;4.03;100.00
77062;BME280;65989;51.686;5.138;2024-02-26T03:39:06;100021.50;;;4.03;100.00
77062;BME280;65989;51.686;5.138;2024-02-26T03:41:33;100015.22;;;4.04;100.00
77062;BME280;65989;51.686;5.138;2024-02-26T03:43:58;100013.28;;;3.99;100.00
77062;BME280;65989;51.686;5.138;2024-02-26T03:46:24;100017.50;;;4.00;100.00
77062;BME280;65989;51.686;5.138;2024-02-26T03:48:49;100021.25;;;4.04;100.00
77062;BME280;65989;51.686;5.138;2024-02-26T03:51:15;100025.47;;;4.06;100.00
77062;BME280;65989;51.686;5.138;2024-02-26T03:53:40;100011.22;;;4.01;100.00
77062;BME280;65989;51.686;5.138;2024-02-26T03:56:06;100013.75;;;3.96;100.00
77062;BME280;65989;51.686;5.138;2024-02-26T03:58:32;100012.38;;;3.94;100.00
77062;BME280;65989;51.686;5.138;2024-02-26T04:00:58;100013.97;;;3.95;100.00
77062;BME280;65989;51.686;5.138;2024-02-26T04:03:24;100017.41;;;3.95;100.00
77062;BME280;65989;51.686;5.138;2024-02-26T04:05:49;100017.16;;;3.97;100.00
77062;BME280;65989;51.686;5.138;2024-02-26T04:08:14;100016.84;;;3.93;100.00
77062;BME280;65989;51.686;5.138;2024-02-26T04:10:40;100023.31;;;3.91;100.00
77062;BME280;65989;51.686;5.138;2024-02-26T04:13:07;100018.66;;;3.93;100.00
77062;BME280;65989;51.686;5.138;2024-02-26T04:15:32;100024.34;;;3.89;100.00
77062;BME280;65989;51.686;5.138;2024-02-26T04:17:58;100012.06;;;3.90;100.00
77062;BME280;65989;51.686;5.138;2024-02-26T04:20:23;100015.81;;;3.94;100.00
77062;BME280;65989;51.686;5.138;2024-02-26T04:22:49;100014.22;;;3.93;100.00
77062;BME280;65989;51.686;5.138;2024-02-26T04:25:15;100009.75;;;3.94;100.00
77062;BME280;65989;51.686;5.138;2024-02-26T04:27:41;100014.44;;;3.92;100.00
77062;BME280;65989;51.686;5.138;2024-02-26T04:30:07;100021.25;;;3.93;100.00
77062;BME280;65989;51.686;5.138;2024-02-26T04:32:32;100021.25;;;3.93;100.00
77062;BME280;65989;51.686;5.138;2024-02-26T04:34:59;100032.31;;;3.95;100.00
77062;BME280;65989;51.686;5.138;2024-02-26T04:37:24;100028.91;;;3.94;100.00
77062;BME280;65989;51.686;5.138;2024-02-26T04:39:50;100034.94;;;3.95;100.00
77062;BME280;65989;51.686;5.138;2024-02-26T04:42:15;100032.31;;;3.95;100.00
77062;BME280;65989;51.686;5.138;2024-02-26T04:44:40;100032.91;;;3.97;100.00
77062;BME280;65989;51.686;5.138;2024-02-26T04:47:06;100047.59;;;3.98;100.00
77062;BME280;65989;51.686;5.138;2024-02-26T04:49:32;100044.72;;;3.99;100.00
77062;BME280;65989;51.686;5.138;2024-02-26T04:51:59;100033.69;;;3.97;100.00
77062;BME280;65989;51.686;5.138;2024-02-26T04:54:24;100046.25;;;3.95;100.00
77062;BME280;65989;51.686;5.138;2024-02-26T04:56:49;100055.69;;;3.96;100.00
77062;BME280;65989;51.686;5.138;2024-02-26T04:59:15;100045.66;;;3.93;100.00
77062;BME280;65989;51.686;5.138;2024-02-26T05:01:40;100050.91;;;3.93;100.00
77062;BME280;65989;51.686;5.138;2024-02-26T05:04:06;100044.41;;;3.84;100.00
77062;BME280;65989;51.686;5.138;2024-02-26T05:06:32;100059.81;;;3.92;100.00
77062;BME280;65989;51.686;5.138;2024-02-26T05:08:57;100046.00;;;3.85;100.00
77062;BME280;65989;51.686;5.138;2024-02-26T05:11:22;100065.38;;;3.96;100.00
77062;BME280;65989;51.686;5.138;2024-02-26T05:13:48;100059.22;;;3.90;100.00
77062;BME280;65989;51.686;5.138;2024-02-26T05:16:13;100043.13;;;3.86;100.00
77062;BME280;65989;51.686;5.138;2024-02-26T05:18:39;100078.34;;;3.91;100.00
77062;BME280;65989;51.686;5.138;2024-02-26T05:21:04;100069.47;;;3.92;100.00
77062;BME280;65989;51.686;5.138;2024-02-26T05:23:29;100067.31;;;3.88;100.00
77062;BME280;65989;51.686;5.138;2024-02-26T05:25:55;100082.44;;;3.86;100.00
77062;BME280;65989;51.686;5.138;2024-02-26T05:28:21;100063.78;;;3.83;100.00
77062;BME280;65989;51.686;5.138;2024-02-26T05:30:46;100074.03;;;3.84;100.00
77062;BME280;65989;51.686;5.138;2024-02-26T05:33:12;100079.25;;;3.84;100.00
77062;BME280;65989;51.686;5.138;2024-02-26T05:35:38;100080.28;;;3.83;100.00
77062;BME280;65989;51.686;5.138;2024-02-26T05:38:03;100086.34;;;3.84;100.00
77062;BME280;65989;51.686;5.138;2024-02-26T05:40:29;100094.19;;;3.84;100.00
77062;BME280;65989;51.686;5.138;2024-02-26T05:42:55;100087.38;;;3.83;100.00
77062;BME280;65989;51.686;5.138;2024-02-26T05:45:20;100099.66;;;3.82;100.00
77062;BME280;65989;51.686;5.138;2024-02-26T05:47:47;100103.28;;;3.81;100.00
77062;BME280;65989;51.686;5.138;2024-02-26T05:50:12;100107.06;;;3.85;100.00
77062;BME280;65989;51.686;5.138;2024-02-26T05:52:38;100097.03;;;3.82;100.00
77062;BME280;65989;51.686;5.138;2024-02-26T05:55:04;100098.28;;;3.80;100.00
77062;BME280;65989;51.686;5.138;2024-02-26T05:57:31;100107.19;;;3.79;100.00
77062;BME280;65989;51.686;5.138;2024-02-26T05:59:56;100113.69;;;3.76;100.00
77062;BME280;65989;51.686;5.138;2024-02-26T06:02:22;100108.19;;;3.78;100.00
77062;BME280;65989;51.686;5.138;2024-02-26T06:04:47;100116.97;;;3.71;100.00
77062;BME280;65989;51.686;5.138;2024-02-26T06:07:13;100117.97;;;3.70;100.00
77062;BME280;65989;51.686;5.138;2024-02-26T06:09:38;100120.84;;;3.69;100.00
77062;BME280;65989;51.686;5.138;2024-02-26T06:12:05;100118.56;;;3.72;100.00
77062;BME280;65989;51.686;5.138;2024-02-26T06:14:30;100114.91;;;3.73;100.00
77062;BME280;65989;51.686;5.138;2024-02-26T06:16:56;100131.09;;;3.70;100.00
77062;BME280;65989;51.686;5.138;2024-02-26T06:19:21;100132.69;;;3.71;100.00
77062;BME280;65989;51.686;5.138;2024-02-26T06:21:46;100140.78;;;3.70;100.00
77062;BME280;65989;51.686;5.138;2024-02-26T06:24:12;100136.13;;;3.72;100.00
77062;BME280;65989;51.686;5.138;2024-02-26T06:26:37;100148.78;;;3.75;100.00
77062;BME280;65989;51.686;5.138;2024-02-26T06:29:02;100138.50;;;3.73;100.00
77062;BME280;65989;51.686;5.138;2024-02-26T06:31:28;100144.56;;;3.74;100.00
77062;BME280;65989;51.686;5.138;2024-02-26T06:33:54;100151.97;;;3.77;100.00
77062;BME280;65989;51.686;5.138;2024-02-26T06:36:20;100158.00;;;3.78;100.00
77062;BME280;65989;51.686;5.138;2024-02-26T06:38:46;100159.59;;;3.79;100.00
77062;BME280;65989;51.686;5.138;2024-02-26T06:41:11;100167.44;;;3.79;100.00
77062;BME280;65989;51.686;5.138;2024-02-26T06:43:37;100164.84;;;3.79;100.00
77062;BME280;65989;51.686;5.138;2024-02-26T06:46:02;100168.47;;;3.78;100.00
77062;BME280;65989;51.686;5.138;2024-02-26T06:48:27;100168.03;;;3.81;100.00
77062;BME280;65989;51.686;5.138;2024-02-26T06:50:53;100170.88;;;3.79;100.00
77062;BME280;65989;51.686;5.138;2024-02-26T06:53:18;100178.75;;;3.79;100.00
77062;BME280;65989;51.686;5.138;2024-02-26T06:55:47;100172.47;;;3.80;100.00
77062;BME280;65989;51.686;5.138;2024-02-26T06:58:14;100173.28;;;3.81;100.00
77062;BME280;65989;51.686;5.138;2024-02-26T07:00:40;100181.72;;;3.83;100.00
77062;BME280;65989;51.686;5.138;2024-02-26T07:03:05;100180.56;;;3.79;100.00
77062;BME280;65989;51.686;5.138;2024-02-26T07:05:30;100190.16;;;3.85;100.00
77062;BME280;65989;51.686;5.138;2024-02-26T07:07:56;100186.63;;;3.79;100.00
77062;BME280;65989;51.686;5.138;2024-02-26T07:10:21;100199.03;;;3.84;100.00
77062;BME280;65989;51.686;5.138;2024-02-26T07:12:47;100200.06;;;3.83;100.00
77062;BME280;65989;51.686;5.138;2024-02-26T07:15:12;100203.47;;;3.83;100.00
77062;BME280;65989;51.686;5.138;2024-02-26T07:17:37;100211.13;;;3.85;100.00
77062;BME280;65989;51.686;5.138;2024-02-26T07:20:07;100219.44;;;3.82;100.00
77062;BME280;65989;51.686;5.138;2024-02-26T07:22:33;100222.38;;;3.85;100.00
77062;BME280;65989;51.686;5.138;2024-02-26T07:24:58;100228.06;;;3.82;100.00
77062;BME280;65989;51.686;5.138;2024-02-26T07:27:23;100232.53;;;3.82;100.00
77062;BME280;65989;51.686;5.138;2024-02-26T07:29:49;100229.31;;;3.80;100.00
77062;BME280;65989;51.686;5.138;2024-02-26T07:32:14;100229.47;;;3.85;100.00
77062;BME280;65989;51.686;5.138;2024-02-26T07:34:40;100232.88;;;3.85;100.00
77062;BME280;65989;51.686;5.138;2024-02-26T07:37:12;100242.19;;;3.81;100.00
77062;BME280;65989;51.686;5.138;2024-02-26T07:39:38;100235.94;;;3.82;100.00
77062;BME280;65989;51.686;5.138;2024-02-26T07:42:03;100240.97;;;3.84;100.00
77062;BME280;65989;51.686;5.138;2024-02-26T07:44:29;100227.28;;;3.82;100.00
77062;BME280;65989;51.686;5.138;2024-02-26T07:46:54;100251.00;;;3.87;100.00
77062;BME280;65989;51.686;5.138;2024-02-26T07:49:20;100253.63;;;3.87;100.00
77062;BME280;65989;51.686;5.138;2024-02-26T07:51:45;100248.59;;;3.85;100.00
77062;BME280;65989;51.686;5.138;2024-02-26T07:54:10;100246.34;;;3.89;100.00
77062;BME280;65989;51.686;5.138;2024-02-26T07:56:36;100259.44;;;3.89;100.00
77062;BME280;65989;51.686;5.138;2024-02-26T07:59:01;100266.28;;;3.90;100.00
77062;BME280;65989;51.686;5.138;2024-02-26T08:01:27;100261.50;;;3.87;100.00
77062;BME280;65989;51.686;5.138;2024-02-26T08:03:53;100268.69;;;3.92;100.00
77062;BME280;65989;51.686;5.138;2024-02-26T08:06:18;100272.91;;;3.93;100.00
77062;BME280;65989;51.686;5.138;2024-02-26T08:08:44;100266.88;;;3.92;100.00
77062;BME280;65989;51.686;5.138;2024-02-26T08:11:09;100268.34;;;3.88;100.00
77062;BME280;65989;51.686;5.138;2024-02-26T08:13:35;100279.75;;;3.94;100.00
77062;BME280;65989;51.686;5.138;2024-02-26T08:16:01;100282.03;;;3.90;100.00
77062;BME280;65989;51.686;5.138;2024-02-26T08:18:26;100282.03;;;3.90;100.00
77062;BME280;65989;51.686;5.138;2024-02-26T08:20:51;100298.53;;;3.91;100.00
77062;BME280;65989;51.686;5.138;2024-02-26T08:23:17;100285.44;;;3.91;100.00
77062;BME280;65989;51.686;5.138;2024-02-26T08:25:43;100283.97;;;3.95;100.00
77062;BME280;65989;51.686;5.138;2024-02-26T08:28:08;100287.16;;;3.97;100.00
77062;BME280;65989;51.686;5.138;2024-02-26T08:30:33;100286.59;;;3.95;100.00
77062;BME280;65989;51.686;5.138;2024-02-26T08:32:59;100297.06;;;3.95;100.00
77062;BME280;65989;51.686;5.138;2024-02-26T08:35:25;100296.63;;;3.98;100.00
77062;BME280;65989;51.686;5.138;2024-02-26T08:37:50;100308.47;;;4.00;100.00
77062;BME280;65989;51.686;5.138;2024-02-26T08:40:16;100304.63;;;4.03;100.00
77062;BME280;65989;51.686;5.138;2024-02-26T08:42:41;100310.91;;;4.02;100.00
77062;BME280;65989;51.686;5.138;2024-02-26T08:45:08;100314.09;;;4.04;100.00
77062;BME280;65989;51.686;5.138;2024-02-26T08:47:33;100314.88;;;4.04;100.00
77062;BME280;65989;51.686;5.138;2024-02-26T08:49:58;100328.38;;;4.08;100.00
77062;BME280;65989;51.686;5.138;2024-02-26T08:52:24;100318.53;;;4.03;100.00
77062;BME280;65989;51.686;5.138;2024-02-26T08:54:49;100317.31;;;4.06;100.00
77062;BME280;65989;51.686;5.138;2024-02-26T08:57:15;100316.63;;;4.11;100.00
77062;BME280;65989;51.686;5.138;2024-02-26T08:59:40;100340.56;;;4.14;100.00
77062;BME280;65989;51.686;5.138;2024-02-26T09:02:06;100331.56;;;4.10;100.00
77062;BME280;65989;51.686;5.138;2024-02-26T09:04:33;100336.56;;;4.12;100.00
77062;BME280;65989;51.686;5.138;2024-02-26T09:06:59;100336.13;;;4.15;100.00
77062;BME280;65989;51.686;5.138;2024-02-26T09:09:24;100354.50;;;4.15;100.00
77062;BME280;65989;51.686;5.138;2024-02-26T09:11:51;100341.16;;;4.16;100.00
77062;BME280;65989;51.686;5.138;2024-02-26T09:14:18;100345.03;;;4.14;100.00
77062;BME280;65989;51.686;5.138;2024-02-26T09:16:43;100356.53;;;4.13;100.00
77062;BME280;65989;51.686;5.138;2024-02-26T09:19:08;100355.75;;;4.12;100.00
77062;BME280;65989;51.686;5.138;2024-02-26T09:21:34;100363.97;;;4.16;100.00
77062;BME280;65989;51.686;5.138;2024-02-26T09:23:59;100373.09;;;4.13;100.00
77062;BME280;65989;51.686;5.138;2024-02-26T09:26:24;100370.22;;;4.15;100.00
77062;BME280;65989;51.686;5.138;2024-02-26T09:28:50;100386.53;;;4.17;100.00
77062;BME280;65989;51.686;5.138;2024-02-26T09:31:17;100380.94;;;4.13;100.00
77062;BME280;65989;51.686;5.138;2024-02-26T09:33:43;100380.72;;;4.15;100.00
77062;BME280;65989;51.686;5.138;2024-02-26T09:36:09;100381.88;;;4.19;100.00
77062;BME280;65989;51.686;5.138;2024-02-26T09:38:36;100386.53;;;4.17;100.00
77062;BME280;65989;51.686;5.138;2024-02-26T09:41:06;100394.75;;;4.21;100.00
77062;BME280;65989;51.686;5.138;2024-02-26T09:43:35;100399.22;;;4.20;100.00
77062;BME280;65989;51.686;5.138;2024-02-26T09:46:05;100405.47;;;4.19;100.00
77062;BME280;65989;51.686;5.138;2024-02-26T09:48:32;100414.28;;;4.25;100.00
77062;BME280;65989;51.686;5.138;2024-02-26T09:51:00;100413.34;;;4.19;100.00
77062;BME280;65989;51.686;5.138;2024-02-26T09:53:29;100419.38;;;4.19;100.00
77062;BME280;65989;51.686;5.138;2024-02-26T09:55:57;100428.06;;;4.20;100.00
77062;BME280;65989;51.686;5.138;2024-02-26T09:58:22;100428.84;;;4.21;100.00
77062;BME280;65989;51.686;5.138;2024-02-26T10:00:53;100428.84;;;4.21;100.00
77062;BME280;65989;51.686;5.138;2024-02-26T10:03:25;100436.50;;;4.22;100.00
77062;BME280;65989;51.686;5.138;2024-02-26T10:05:53;100437.75;;;4.19;100.00
77062;BME280;65989;51.686;5.138;2024-02-26T10:08:20;100443.94;;;4.25;100.00
77062;BME280;65989;51.686;5.138;2024-02-26T10:10:47;100460.84;;;4.29;100.00
77062;BME280;65989;51.686;5.138;2024-02-26T10:13:13;100449.78;;;4.27;100.00
77062;BME280;65989;51.686;5.138;2024-02-26T10:15:38;100456.16;;;4.31;100.00
77062;BME280;65989;51.686;5.138;2024-02-26T10:18:07;100453.31;;;4.33;100.00
77062;BME280;65989;51.686;5.138;2024-02-26T10:20:32;100464.84;;;4.32;100.00
77062;BME280;65989;51.686;5.138;2024-02-26T10:22:58;100469.25;;;4.31;100.00
77062;BME280;65989;51.686;5.138;2024-02-26T10:25:27;100476.13;;;4.32;100.00
77062;BME280;65989;51.686;5.138;2024-02-26T10:27:53;100479.75;;;4.31;100.00
77062;BME280;65989;51.686;5.138;2024-02-26T10:30:22;100474.75;;;4.30;100.00
77062;BME280;65989;51.686;5.138;2024-02-26T10:32:49;100477.72;;;4.33;100.00
77062;BME280;65989;51.686;5.138;2024-02-26T10:35:15;100491.22;;;4.37;100.00
77062;BME280;65989;51.686;5.138;2024-02-26T10:37:41;100487.19;;;4.34;100.00
77062;BME280;65989;51.686;5.138;2024-02-26T10:40:11;100497.69;;;4.34;100.00
77062;BME280;65989;51.686;5.138;2024-02-26T10:42:36;100502.56;;;4.31;100.00
77062;BME280;65989;51.686;5.138;2024-02-26T10:45:04;100507.03;;;4.30;100.00
77062;BME280;65989;51.686;5.138;2024-02-26T10:47:30;100504.19;;;4.32;100.00
77062;BME280;65989;51.686;5.138;2024-02-26T10:49:57;100523.28;;;4.39;100.00
77062;BME280;65989;51.686;5.138;2024-02-26T10:52:22;100519.84;;;4.39;100.00
77062;BME280;65989;51.686;5.138;2024-02-26T10:54:53;100518.22;;;4.38;100.00
77062;BME280;65989;51.686;5.138;2024-02-26T10:57:19;100523.72;;;4.36;100.00
77062;BME280;65989;51.686;5.138;2024-02-26T10:59:49;100537.03;;;4.34;100.00
77062;BME280;65989;51.686;5.138;2024-02-26T11:02:15;100544.91;;;4.34;100.00
77062;BME280;65989;51.686;5.138;2024-02-26T11:04:41;100535.06;;;4.30;100.00
77062;BME280;65989;51.686;5.138;2024-02-26T11:07:09;100535.44;;;4.33;100.00
77062;BME280;65989;51.686;5.138;2024-02-26T11:09:35;100543.75;;;4.30;100.00
77062;BME280;65989;51.686;5.138;2024-02-26T11:12:02;100546.94;;;4.32;100.00
77062;BME280;65989;51.686;5.138;2024-02-26T11:14:29;100546.94;;;4.32;100.00
77062;BME280;65989;51.686;5.138;2024-02-26T11:16:55;100548.34;;;4.35;100.00
77062;BME280;65989;51.686;5.138;2024-02-26T11:19:21;100564.44;;;4.39;100.00
77062;BME280;65989;51.686;5.138;2024-02-26T11:21:47;100557.97;;;4.41;100.00
77062;BME280;65989;51.686;5.138;2024-02-26T11:24:14;100553.31;;;4.43;100.00
77062;BME280;65989;51.686;5.138;2024-02-26T11:26:46;100552.28;;;4.44;100.00
77062;BME280;65989;51.686;5.138;2024-02-26T11:29:18;100564.38;;;4.45;100.00
77062;BME280;65989;51.686;5.138;2024-02-26T11:31:46;100558.13;;;4.46;100.00
77062;BME280;65989;51.686;5.138;2024-02-26T11:34:11;100568.63;;;4.46;100.00
77062;BME280;65989;51.686;5.138;2024-02-26T11:36:37;100571.00;;;4.48;100.00
77062;BME280;65989;51.686;5.138;2024-02-26T11:39:04;100561.53;;;4.47;100.00
77062;BME280;65989;51.686;5.138;2024-02-26T11:41:30;100565.75;;;4.48;100.00
77062;BME280;65989;51.686;5.138;2024-02-26T11:44:02;100579.22;;;4.52;100.00
77062;BME280;65989;51.686;5.138;2024-02-26T11:46:33;100585.06;;;4.54;100.00
77062;BME280;65989;51.686;5.138;2024-02-26T11:51:53;100579.38;;;4.57;100.00
77062;BME280;65989;51.686;5.138;2024-02-26T11:54:49;100579.81;;;4.54;100.00
77062;BME280;65989;51.686;5.138;2024-02-26T11:57:29;100584.84;;;4.55;100.00
77062;BME280;65989;51.686;5.138;2024-02-26T11:59:57;100573.53;;;4.55;100.00
77062;BME280;65989;51.686;5.138;2024-02-26T12:05:16;100575.81;;;4.51;100.00
77062;BME280;65989;51.686;5.138;2024-02-26T12:08:08;100585.88;;;4.54;100.00
77062;BME280;65989;51.686;5.138;2024-02-26T12:10:36;100589.09;;;4.56;100.00
77062;BME280;65989;51.686;5.138;2024-02-26T12:13:14;100596.72;;;4.58;100.00
77062;BME280;65989;51.686;5.138;2024-02-26T12:15:42;100592.94;;;4.54;100.00
77062;BME280;65989;51.686;5.138;2024-02-26T12:18:10;100602.22;;;4.56;100.00
77062;BME280;65989;51.686;5.138;2024-02-26T12:20:39;100605.63;;;4.57;100.00
77062;BME280;65989;51.686;5.138;2024-02-26T12:23:04;100632.09;;;4.55;100.00
77062;BME280;65989;51.686;5.138;2024-02-26T12:25:31;100618.53;;;4.58;100.00
77062;BME280;65989;51.686;5.138;2024-02-26T12:27:58;100620.34;;;4.58;100.00
77062;BME280;65989;51.686;5.138;2024-02-26T12:30:24;100625.00;;;4.56;100.00
77062;BME280;65989;51.686;5.138;2024-02-26T12:32:55;100631.88;;;4.57;100.00
77062;BME280;65989;51.686;5.138;2024-02-26T12:35:26;100640.56;;;4.57;100.00
77062;BME280;65989;51.686;5.138;2024-02-26T12:37:55;100644.63;;;4.53;100.00
77062;BME280;65989;51.686;5.138;2024-02-26T12:40:20;100652.28;;;4.55;100.00
77062;BME280;65989;51.686;5.138;2024-02-26T12:42:46;100637.94;;;4.57;100.00
77062;BME280;65989;51.686;5.138;2024-02-26T12:45:13;100635.66;;;4.61;100.00
77062;BME280;65989;51.686;5.138;2024-02-26T12:47:40;100659.63;;;4.64;100.00
77062;BME280;65989;51.686;5.138;2024-02-26T12:50:07;100658.06;;;4.63;100.00
77062;BME280;65989;51.686;5.138;2024-02-26T12:52:37;100653.38;;;4.66;100.00